createdAt,value
2023-01-29T00:00:19.273Z,-0.05
2023-01-29T00:02:47.860Z,-0.05
2023-01-29T00:05:27.534Z,-0.08
2023-01-29T00:07:56.796Z,-0.13
2023-01-29T00:10:27.189Z,-0.12
2023-01-29T00:12:55.767Z,-0.19
2023-01-29T00:15:24.292Z,-0.20
2023-01-29T00:17:52.581Z,-0.19
2023-01-29T00:20:21.005Z,-0.17
2023-01-29T00:22:49.488Z,-0.17
2023-01-29T00:25:18.090Z,-0.15
2023-01-29T00:27:47.886Z,-0.13
2023-01-29T00:30:19.612Z,-0.11
2023-01-29T00:32:48.703Z,-0.11
2023-01-29T00:35:17.247Z,-0.09
2023-01-29T00:37:45.944Z,-0.10
2023-01-29T00:40:15.415Z,-0.09
2023-01-29T00:43:04.970Z,-0.11
2023-01-29T00:45:34.074Z,-0.13
2023-01-29T00:48:02.583Z,-0.12
2023-01-29T00:50:31.650Z,-0.12
2023-01-29T00:53:00.150Z,-0.11
2023-01-29T00:55:28.445Z,-0.11
2023-01-29T00:57:58.311Z,-0.13
2023-01-29T01:00:26.840Z,-0.12
2023-01-29T01:03:06.246Z,-0.15
2023-01-29T01:05:36.776Z,-0.15
2023-01-29T01:08:25.820Z,-0.15
2023-01-29T01:11:00.478Z,-0.13
2023-01-29T01:13:30.543Z,-0.14
2023-01-29T01:15:59.314Z,-0.13
2023-01-29T01:18:32.390Z,-0.14
2023-01-29T01:21:00.756Z,-0.14
2023-01-29T01:23:29.188Z,-0.13
2023-01-29T01:25:57.724Z,-0.14
2023-01-29T01:28:26.347Z,-0.14
2023-01-29T01:30:56.450Z,-0.14
2023-01-29T01:33:25.454Z,-0.15
2023-01-29T01:35:53.947Z,-0.18
2023-01-29T01:38:22.756Z,-0.22
2023-01-29T01:40:51.039Z,-0.19
2023-01-29T01:43:19.570Z,-0.26
2023-01-29T01:45:48.499Z,-0.21
2023-01-29T01:48:21.925Z,-0.23
2023-01-29T01:50:55.315Z,-0.23
2023-01-29T01:53:29.815Z,-0.26
2023-01-29T01:56:03.627Z,-0.25
2023-01-29T01:58:36.161Z,-0.28
2023-01-29T02:01:06.008Z,-0.27
2023-01-29T02:04:01.409Z,-0.26
2023-01-29T02:06:47.811Z,-0.29
2023-01-29T02:09:35.280Z,-0.28
2023-01-29T02:12:05.180Z,-0.28
2023-01-29T02:14:38.794Z,-0.28
2023-01-29T02:17:09.236Z,-0.27
2023-01-29T02:19:49.500Z,-0.31
2023-01-29T02:22:42.695Z,-0.35
2023-01-29T02:25:41.585Z,-0.32
2023-01-29T02:28:33.606Z,-0.33
2023-01-29T02:31:12.083Z,-0.34
2023-01-29T02:33:53.952Z,-0.38
2023-01-29T02:36:42.610Z,-0.38
2023-01-29T02:39:18.646Z,-0.40
2023-01-29T02:41:56.325Z,-0.42
2023-01-29T02:44:35.380Z,-0.45
2023-01-29T02:47:10.287Z,-0.46
2023-01-29T02:49:48.043Z,-0.46
2023-01-29T02:52:20.464Z,-0.40
2023-01-29T02:54:56.521Z,-0.38
2023-01-29T02:57:29.996Z,-0.41
2023-01-29T03:00:06.980Z,-0.39
2023-01-29T03:02:43.981Z,-0.39
2023-01-29T03:05:18.764Z,-0.38
2023-01-29T03:07:52.060Z,-0.40
2023-01-29T03:10:34.325Z,-0.41
2023-01-29T03:13:08.407Z,-0.46
2023-01-29T03:15:47.368Z,-0.44
2023-01-29T03:18:43.608Z,-0.47
2023-01-29T03:21:37.369Z,-0.45
2023-01-29T03:24:28.017Z,-0.44
2023-01-29T03:27:17.463Z,-0.46
2023-01-29T03:30:06.165Z,-0.47
2023-01-29T03:32:57.963Z,-0.50
2023-01-29T03:35:35.347Z,-0.49
2023-01-29T03:38:05.472Z,-0.48
2023-01-29T03:40:41.371Z,-0.51
2023-01-29T03:43:15.971Z,-0.53
2023-01-29T03:45:53.544Z,-0.55
2023-01-29T03:48:35.236Z,-0.56
2023-01-29T03:51:21.549Z,-0.55
2023-01-29T03:53:55.131Z,-0.57
2023-01-29T03:56:40.469Z,-0.58
2023-01-29T03:59:24.087Z,-0.59
2023-01-29T04:02:10.322Z,-0.59
2023-01-29T04:04:45.470Z,-0.61
2023-01-29T04:07:17.446Z,-0.60
2023-01-29T04:09:51.042Z,-0.62
2023-01-29T04:12:27.055Z,-0.61
2023-01-29T04:14:57.023Z,-0.63
2023-01-29T04:17:32.947Z,-0.62
2023-01-29T04:20:15.283Z,-0.62
2023-01-29T04:22:48.201Z,-0.62
2023-01-29T04:25:19.318Z,-0.61
2023-01-29T04:27:59.242Z,-0.60
2023-01-29T04:30:40.082Z,-0.58
2023-01-29T04:33:22.815Z,-0.59
2023-01-29T04:36:08.999Z,-0.64
2023-01-29T04:38:52.621Z,-0.67
2023-01-29T04:41:26.761Z,-0.68
2023-01-29T04:44:04.712Z,-0.68
2023-01-29T04:46:43.623Z,-0.67
2023-01-29T04:49:24.708Z,-0.66
2023-01-29T04:52:02.788Z,-0.66
2023-01-29T04:54:54.176Z,-0.65
2023-01-29T04:57:28.159Z,-0.65
2023-01-29T05:00:01.735Z,-0.68
2023-01-29T05:02:31.731Z,-0.69
2023-01-29T05:05:00.479Z,-0.76
2023-01-29T05:07:32.138Z,-0.75
2023-01-29T05:10:01.374Z,-0.73
2023-01-29T05:12:31.650Z,-0.75
2023-01-29T05:15:05.880Z,-0.77
2023-01-29T05:17:34.342Z,-0.76
2023-01-29T05:20:02.685Z,-0.77
2023-01-29T05:22:32.617Z,-0.78
2023-01-29T05:25:01.044Z,-0.77
2023-01-29T05:27:53.424Z,-0.78
2023-01-29T05:30:21.815Z,-0.80
2023-01-29T05:32:50.089Z,-0.78
2023-01-29T05:35:18.437Z,-0.77
2023-01-29T05:37:47.982Z,-0.75
2023-01-29T05:40:17.232Z,-0.75
2023-01-29T05:42:45.993Z,-0.76
2023-01-29T05:45:14.436Z,-0.75
2023-01-29T05:47:42.790Z,-0.72
2023-01-29T05:50:12.890Z,-0.75
2023-01-29T05:52:41.578Z,-0.76
2023-01-29T05:55:11.891Z,-0.75
2023-01-29T05:57:41.618Z,-0.77
2023-01-29T06:00:13.078Z,-0.76
2023-01-29T06:02:41.398Z,-0.74
2023-01-29T06:05:10.474Z,-0.71
2023-01-29T06:07:41.712Z,-0.70
2023-01-29T06:10:13.931Z,-0.68
2023-01-29T06:12:43.093Z,-0.69
2023-01-29T06:15:15.517Z,-0.70
2023-01-29T06:17:44.300Z,-0.73
2023-01-29T06:20:13.607Z,-0.76
2023-01-29T06:22:41.875Z,-0.80
2023-01-29T06:25:12.203Z,-0.81
2023-01-29T06:27:40.419Z,-0.79
2023-01-29T06:30:10.659Z,-0.79
2023-01-29T06:32:39.083Z,-0.81
2023-01-29T06:35:09.884Z,-0.79
2023-01-29T06:37:38.704Z,-0.83
2023-01-29T06:40:08.997Z,-0.83
2023-01-29T06:42:38.623Z,-0.84
2023-01-29T06:45:08.299Z,-0.83
2023-01-29T06:47:36.870Z,-0.84
2023-01-29T06:50:05.901Z,-0.86
2023-01-29T06:52:34.429Z,-0.87
2023-01-29T06:55:02.834Z,-0.86
2023-01-29T06:57:31.097Z,-0.86
2023-01-29T07:00:00.785Z,-0.85
2023-01-29T07:02:30.191Z,-0.87
2023-01-29T07:04:58.446Z,-0.87
2023-01-29T07:07:26.845Z,-0.85
2023-01-29T07:09:55.057Z,-0.89
2023-01-29T07:12:23.304Z,-0.91
2023-01-29T07:14:51.690Z,-0.86
2023-01-29T07:17:21.599Z,-0.91
2023-01-29T07:19:50.091Z,-0.92
2023-01-29T07:22:18.355Z,-0.90
2023-01-29T07:24:48.471Z,-0.91
2023-01-29T07:27:16.806Z,-0.93
2023-01-29T07:29:45.125Z,-0.96
2023-01-29T07:32:13.576Z,-0.96
2023-01-29T07:34:43.394Z,-0.95
2023-01-29T07:37:12.859Z,-0.93
2023-01-29T07:39:41.103Z,-0.92
2023-01-29T07:42:09.557Z,-0.90
2023-01-29T07:44:37.819Z,-0.89
2023-01-29T07:47:06.530Z,-0.91
2023-01-29T07:49:34.993Z,-0.89
2023-01-29T07:52:04.939Z,-0.89
2023-01-29T07:54:33.606Z,-0.90
2023-01-29T07:57:02.105Z,-0.90
2023-01-29T07:59:30.419Z,-0.90
2023-01-29T08:01:58.822Z,-0.92
2023-01-29T08:04:27.144Z,-0.88
2023-01-29T08:06:55.648Z,-0.87
2023-01-29T08:09:25.324Z,-0.86
2023-01-29T08:11:53.724Z,-0.87
2023-01-29T08:14:22.049Z,-0.83
2023-01-29T08:16:50.564Z,-0.85
2023-01-29T08:19:18.985Z,-0.85
2023-01-29T08:21:47.287Z,-0.88
2023-01-29T08:24:15.553Z,-0.84
2023-01-29T08:26:45.252Z,-0.82
2023-01-29T08:29:14.048Z,-0.80
2023-01-29T08:31:42.523Z,-0.77
2023-01-29T08:34:10.929Z,-0.76
2023-01-29T08:36:39.245Z,-0.72
2023-01-29T08:39:07.585Z,-0.71
2023-01-29T08:41:35.969Z,-0.68
2023-01-29T08:44:06.516Z,-0.68
2023-01-29T08:46:34.896Z,-0.65
2023-01-29T08:49:03.374Z,-0.65
2023-01-29T08:51:31.614Z,-0.65
2023-01-29T08:54:00.206Z,-0.64
2023-01-29T08:56:28.535Z,-0.62
2023-01-29T08:58:58.327Z,-0.63
2023-01-29T09:01:28.691Z,-0.60
2023-01-29T09:03:56.993Z,-0.59
2023-01-29T09:06:25.351Z,-0.55
2023-01-29T09:08:54.062Z,-0.52
2023-01-29T09:11:22.471Z,-0.51
2023-01-29T09:13:50.825Z,-0.49
2023-01-29T09:16:19.106Z,-0.50
2023-01-29T09:18:48.687Z,-0.46
2023-01-29T09:21:16.948Z,-0.45
2023-01-29T09:23:45.250Z,-0.43
2023-01-29T09:26:13.648Z,-0.41
2023-01-29T09:28:41.929Z,-0.40
2023-01-29T09:31:10.242Z,-0.38
2023-01-29T09:33:38.643Z,-0.36
2023-01-29T09:36:09.515Z,-0.31
2023-01-29T09:38:37.770Z,-0.33
2023-01-29T09:41:21.462Z,-0.32
2023-01-29T09:43:54.731Z,-0.31
2023-01-29T09:46:29.702Z,-0.29
2023-01-29T09:49:02.543Z,-0.26
2023-01-29T09:51:39.757Z,-0.22
2023-01-29T09:54:20.050Z,-0.20
2023-01-29T09:56:51.978Z,-0.18
2023-01-29T09:59:23.838Z,-0.14
2023-01-29T10:02:05.872Z,-0.11
2023-01-29T10:05:07.029Z,-0.05
2023-01-29T10:08:08.649Z,0.05
2023-01-29T10:10:49.753Z,0.12
2023-01-29T10:13:30.171Z,0.16
2023-01-29T10:16:20.301Z,0.23
2023-01-29T10:19:20.039Z,0.22
2023-01-29T10:22:24.473Z,0.26
2023-01-29T10:24:58.269Z,0.21
2023-01-29T10:27:35.617Z,0.18
2023-01-29T10:30:10.011Z,0.18
2023-01-29T10:32:39.440Z,0.22
2023-01-29T10:35:25.339Z,0.26
2023-01-29T10:37:55.073Z,0.26
2023-01-29T10:40:33.580Z,0.28
2023-01-29T10:43:07.778Z,0.27
2023-01-29T10:45:45.529Z,0.29
2023-01-29T10:48:49.662Z,0.36
2023-01-29T10:51:36.176Z,0.39
2023-01-29T10:54:22.784Z,0.44
2023-01-29T10:57:08.341Z,0.48
2023-01-29T10:59:54.263Z,0.53
2023-01-29T11:02:23.110Z,0.59
2023-01-29T11:04:51.550Z,0.61
2023-01-29T11:07:23.179Z,0.67
2023-01-29T11:09:58.450Z,0.68
2023-01-29T11:12:32.004Z,0.71
2023-01-29T11:15:05.640Z,0.73
2023-01-29T11:17:34.053Z,0.80
2023-01-29T11:20:02.439Z,0.76
2023-01-29T11:22:32.090Z,0.73
2023-01-29T11:25:17.583Z,0.71
2023-01-29T11:27:48.086Z,0.73
2023-01-29T11:30:23.305Z,0.79
2023-01-29T11:32:59.192Z,0.86
2023-01-29T11:35:30.119Z,0.93
2023-01-29T11:38:10.759Z,0.96
2023-01-29T11:40:41.348Z,0.99
2023-01-29T11:43:30.797Z,1.04
2023-01-29T11:46:03.178Z,1.11
2023-01-29T11:48:42.009Z,1.10
2023-01-29T11:51:14.035Z,1.18
2023-01-29T11:53:45.760Z,1.23
2023-01-29T11:56:25.772Z,1.21
2023-01-29T11:58:57.706Z,1.21
2023-01-29T12:01:34.468Z,1.30
2023-01-29T12:04:04.127Z,1.31
2023-01-29T12:06:36.515Z,1.33
2023-01-29T12:09:14.451Z,1.39
2023-01-29T12:11:44.577Z,1.41
2023-01-29T12:14:30.005Z,1.43
2023-01-29T12:17:03.139Z,1.49
2023-01-29T12:19:39.372Z,1.58
2023-01-29T12:22:16.588Z,1.69
2023-01-29T12:24:54.967Z,1.83
2023-01-29T12:27:29.717Z,1.91
2023-01-29T12:30:06.269Z,2.03
2023-01-29T12:32:45.677Z,2.14
2023-01-29T12:35:22.517Z,2.27
2023-01-29T12:37:57.606Z,2.37
2023-01-29T12:40:28.087Z,2.44
2023-01-29T12:43:03.764Z,2.54
2023-01-29T12:45:37.433Z,2.63
2023-01-29T12:48:10.321Z,2.69
2023-01-29T12:50:39.714Z,2.73
2023-01-29T12:53:24.261Z,2.78
2023-01-29T12:55:56.375Z,2.83
2023-01-29T12:58:30.165Z,2.91
2023-01-29T13:01:06.349Z,3.02
2023-01-29T13:03:40.580Z,3.02
2023-01-29T13:06:13.901Z,2.99
2023-01-29T13:08:46.881Z,3.05
2023-01-29T13:11:22.227Z,3.17
2023-01-29T13:13:55.465Z,3.26
2023-01-29T13:16:31.520Z,3.35
2023-01-29T13:19:04.043Z,3.36
2023-01-29T13:21:39.080Z,3.45
2023-01-29T13:24:13.097Z,3.57
2023-01-29T13:26:42.398Z,3.61
2023-01-29T13:29:24.150Z,3.65
2023-01-29T13:31:55.643Z,3.58
2023-01-29T13:34:28.377Z,3.60
2023-01-29T13:37:00.519Z,3.77
2023-01-29T13:39:32.348Z,3.76
2023-01-29T13:42:02.590Z,3.83
2023-01-29T13:44:39.090Z,3.88
2023-01-29T13:47:11.617Z,3.86
2023-01-29T13:49:43.697Z,3.89
2023-01-29T13:52:35.755Z,3.83
2023-01-29T13:55:07.394Z,3.81
2023-01-29T13:57:56.552Z,3.77
2023-01-29T14:00:59.144Z,3.67
2023-01-29T14:04:03.657Z,3.63
2023-01-29T14:06:42.992Z,3.51
2023-01-29T14:10:06.040Z,3.48
2023-01-29T14:12:47.232Z,3.43
2023-01-29T14:15:39.257Z,3.40
2023-01-29T14:18:22.389Z,3.42
2023-01-29T14:21:02.360Z,3.44
2023-01-29T14:23:47.763Z,3.35
2023-01-29T14:26:31.348Z,3.34
2023-01-29T14:29:08.555Z,3.30
2023-01-29T14:31:45.909Z,3.24
2023-01-29T14:34:26.909Z,3.29
2023-01-29T14:36:59.251Z,3.37
2023-01-29T14:39:36.976Z,3.45
2023-01-29T14:42:21.992Z,3.53
2023-01-29T14:45:02.506Z,3.63
2023-01-29T14:48:14.455Z,3.73
2023-01-29T14:50:59.158Z,3.79
2023-01-29T14:53:45.755Z,3.77
2023-01-29T14:56:18.813Z,3.82
2023-01-29T14:58:51.260Z,3.86
2023-01-29T15:01:25.057Z,3.93
2023-01-29T15:04:05.309Z,4.08
2023-01-29T15:06:42.440Z,4.07
2023-01-29T15:09:16.575Z,4.07
2023-01-29T15:11:51.438Z,4.14
2023-01-29T15:14:30.080Z,4.41
2023-01-29T15:17:18.861Z,4.58
2023-01-29T15:19:49.548Z,4.71
2023-01-29T15:22:20.171Z,4.91
2023-01-29T15:25:07.265Z,5.11
2023-01-29T15:27:36.175Z,4.99
2023-01-29T15:30:09.052Z,5.00
2023-01-29T15:32:40.859Z,5.06
2023-01-29T15:35:11.900Z,5.18
2023-01-29T15:37:41.294Z,5.11
2023-01-29T15:40:17.954Z,4.93
2023-01-29T15:42:48.917Z,4.88
2023-01-29T15:45:31.047Z,4.81
2023-01-29T15:48:08.519Z,4.81
2023-01-29T15:50:41.335Z,4.82
2023-01-29T15:53:15.468Z,4.71
2023-01-29T15:55:45.994Z,4.65
2023-01-29T15:58:19.089Z,4.42
2023-01-29T16:00:51.930Z,4.40
2023-01-29T16:03:24.773Z,4.16
2023-01-29T16:05:54.033Z,4.11
2023-01-29T16:08:23.511Z,4.05
2023-01-29T16:10:57.451Z,3.88
2023-01-29T16:13:29.463Z,3.77
2023-01-29T16:16:00.963Z,3.67
2023-01-29T16:18:35.164Z,3.58
2023-01-29T16:21:09.031Z,3.50
2023-01-29T16:23:43.393Z,3.41
2023-01-29T16:26:20.203Z,3.31
2023-01-29T16:28:49.361Z,3.28
2023-01-29T16:31:25.217Z,3.28
2023-01-29T16:33:53.903Z,3.26
2023-01-29T16:36:25.555Z,3.22
2023-01-29T16:38:57.814Z,3.20
2023-01-29T16:41:36.156Z,3.24
2023-01-29T16:44:07.709Z,3.28
2023-01-29T16:46:38.332Z,3.20
2023-01-29T16:49:36.880Z,3.08
2023-01-29T16:52:19.514Z,3.09
2023-01-29T16:54:47.985Z,3.09
2023-01-29T16:57:21.452Z,3.01
2023-01-29T16:59:50.971Z,2.94
2023-01-29T17:02:25.888Z,2.87
2023-01-29T17:04:58.701Z,2.86
2023-01-29T17:07:27.509Z,2.84
2023-01-29T17:10:00.186Z,2.88
2023-01-29T17:12:32.680Z,2.78
2023-01-29T17:15:03.467Z,2.70
2023-01-29T17:17:33.573Z,2.61
2023-01-29T17:20:14.728Z,2.59
2023-01-29T17:22:44.677Z,2.49
2023-01-29T17:25:17.026Z,2.38
2023-01-29T17:27:51.651Z,2.28
2023-01-29T17:30:22.294Z,2.25
2023-01-29T17:32:50.768Z,2.17
2023-01-29T17:35:19.429Z,2.18
2023-01-29T17:37:48.274Z,2.13
2023-01-29T17:40:32.508Z,2.08
2023-01-29T17:43:02.317Z,2.00
2023-01-29T17:45:30.731Z,1.94
2023-01-29T17:47:59.567Z,1.93
2023-01-29T17:50:31.696Z,1.86
2023-01-29T17:53:00.112Z,1.89
2023-01-29T17:55:28.432Z,1.76
2023-01-29T17:57:56.903Z,1.76
2023-01-29T18:00:26.635Z,1.77
2023-01-29T18:02:55.019Z,1.74
2023-01-29T18:05:23.307Z,1.77
2023-01-29T18:07:54.595Z,1.71
2023-01-29T18:10:25.286Z,1.67
2023-01-29T18:12:53.585Z,1.62
2023-01-29T18:15:22.084Z,1.64
2023-01-29T18:17:52.930Z,1.57
2023-01-29T18:20:25.765Z,1.61
2023-01-29T18:22:55.136Z,1.55
2023-01-29T18:25:24.917Z,1.54
2023-01-29T18:27:54.382Z,1.57
2023-01-29T18:30:22.917Z,1.39
2023-01-29T18:32:53.315Z,1.31
2023-01-29T18:35:22.454Z,1.27
2023-01-29T18:37:51.454Z,1.16
2023-01-29T18:40:20.155Z,1.16
2023-01-29T18:42:48.732Z,1.14
2023-01-29T18:45:17.391Z,1.20
2023-01-29T18:47:46.032Z,1.19
2023-01-29T18:50:15.746Z,1.11
2023-01-29T18:52:45.361Z,1.11
2023-01-29T18:55:13.917Z,1.02
2023-01-29T18:58:28.095Z,1.00
2023-01-29T19:00:30.723Z,0.97
2023-01-29T19:02:59.148Z,0.99
2023-01-29T19:05:28.962Z,1.00
2023-01-29T19:07:57.499Z,0.91
2023-01-29T19:10:26.016Z,0.88
2023-01-29T19:12:54.386Z,0.88
2023-01-29T19:15:23.036Z,0.87
2023-01-29T19:17:52.054Z,0.86
2023-01-29T19:20:20.944Z,0.83
2023-01-29T19:22:50.881Z,0.81
2023-01-29T19:25:20.484Z,0.79
2023-01-29T19:27:48.986Z,0.77
2023-01-29T19:30:18.056Z,0.73
2023-01-29T19:32:46.553Z,0.71
2023-01-29T19:35:15.873Z,0.67
2023-01-29T19:37:44.642Z,0.70
2023-01-29T19:40:14.961Z,0.69
2023-01-29T19:42:43.562Z,0.63
2023-01-29T19:45:12.222Z,0.61
2023-01-29T19:47:41.901Z,0.59
2023-01-29T19:50:12.566Z,0.55
2023-01-29T19:52:56.580Z,0.52
2023-01-29T19:55:26.692Z,0.52
2023-01-29T19:57:58.367Z,0.48
2023-01-29T20:00:26.882Z,0.46
2023-01-29T20:02:55.207Z,0.39
2023-01-29T20:05:24.029Z,0.34
2023-01-29T20:07:52.338Z,0.32
2023-01-29T20:10:21.244Z,0.29
2023-01-29T20:12:50.892Z,0.33
2023-01-29T20:15:19.372Z,0.28
2023-01-29T20:17:47.745Z,0.29
2023-01-29T20:20:17.605Z,0.28
2023-01-29T20:22:46.256Z,0.22
2023-01-29T20:25:16.759Z,0.20
2023-01-29T20:27:45.286Z,0.20
2023-01-29T20:30:19.378Z,0.14
2023-01-29T20:32:50.737Z,0.04
2023-01-29T20:35:19.168Z,-0.02
2023-01-29T20:37:47.566Z,-0.06
2023-01-29T20:40:16.709Z,-0.12
2023-01-29T20:42:45.736Z,-0.15
2023-01-29T20:45:16.247Z,-0.21
2023-01-29T20:47:44.838Z,-0.26
2023-01-29T20:50:15.707Z,-0.34
2023-01-29T20:52:44.682Z,-0.41
2023-01-29T20:55:14.656Z,-0.51
2023-01-29T20:57:43.461Z,-0.54
2023-01-29T21:00:17.630Z,-0.58
2023-01-29T21:02:46.515Z,-0.64
2023-01-29T21:05:15.334Z,-0.65
2023-01-29T21:07:43.791Z,-0.67
2023-01-29T21:10:13.107Z,-0.69
2023-01-29T21:12:41.696Z,-0.65
2023-01-29T21:15:11.852Z,-0.69
2023-01-29T21:17:41.730Z,-0.68
2023-01-29T21:20:12.204Z,-0.68
2023-01-29T21:22:42.436Z,-0.71
2023-01-29T21:25:11.886Z,-0.69
2023-01-29T21:27:40.222Z,-0.68
2023-01-29T21:30:10.479Z,-0.72
2023-01-29T21:32:38.932Z,-0.72
2023-01-29T21:35:10.187Z,-0.71
2023-01-29T21:37:38.870Z,-0.71
2023-01-29T21:40:09.956Z,-0.71
2023-01-29T21:42:56.096Z,-0.76
2023-01-29T21:45:24.666Z,-0.77
2023-01-29T21:47:53.013Z,-0.82
2023-01-29T21:50:23.345Z,-0.85
2023-01-29T21:52:51.705Z,-0.90
2023-01-29T21:55:20.136Z,-0.93
2023-01-29T21:57:48.692Z,-0.91
2023-01-29T22:00:19.117Z,-0.93
2023-01-29T22:02:47.656Z,-0.96
2023-01-29T22:05:19.766Z,-1.04
2023-01-29T22:07:50.689Z,-1.08
2023-01-29T22:10:20.620Z,-1.04
2023-01-29T22:12:49.445Z,-1.05
2023-01-29T22:15:18.009Z,-1.03
2023-01-29T22:17:49.463Z,-1.03
2023-01-29T22:20:18.942Z,-0.97
2023-01-29T22:22:48.857Z,-1.04
2023-01-29T22:25:19.930Z,-1.04
2023-01-29T22:27:48.310Z,-1.08
2023-01-29T22:30:17.347Z,-1.16
2023-01-29T22:32:45.973Z,-1.17
2023-01-29T22:35:14.259Z,-1.20
2023-01-29T22:37:42.695Z,-1.23
2023-01-29T22:40:14.219Z,-1.28
2023-01-29T22:42:42.689Z,-1.26
2023-01-29T22:45:12.163Z,-1.29
2023-01-29T22:47:40.593Z,-1.34
2023-01-29T22:50:10.203Z,-1.36
2023-01-29T22:52:42.746Z,-1.41
2023-01-29T22:55:14.298Z,-1.46
2023-01-29T22:57:42.568Z,-1.44
2023-01-29T23:00:15.202Z,-1.50
2023-01-29T23:02:43.486Z,-1.52
2023-01-29T23:05:11.822Z,-1.53
2023-01-29T23:07:40.206Z,-1.58
2023-01-29T23:10:11.135Z,-1.57
2023-01-29T23:12:40.905Z,-1.64
2023-01-29T23:15:10.075Z,-1.65
2023-01-29T23:17:39.564Z,-1.65
2023-01-29T23:20:09.783Z,-1.61
2023-01-29T23:22:38.551Z,-1.61
2023-01-29T23:25:08.239Z,-1.62
2023-01-29T23:27:35.719Z,-1.61
2023-01-29T23:30:07.529Z,-1.60
2023-01-29T23:32:36.272Z,-1.65
2023-01-29T23:35:04.786Z,-1.68
2023-01-29T23:37:33.102Z,-1.68
2023-01-29T23:40:01.642Z,-1.68
2023-01-29T23:42:29.881Z,-1.69
2023-01-29T23:44:58.160Z,-1.70
2023-01-29T23:47:27.785Z,-1.69
2023-01-29T23:49:58.673Z,-1.69
2023-01-29T23:52:27.213Z,-1.68
2023-01-29T23:54:55.478Z,-1.67
2023-01-29T23:57:23.995Z,-1.68
2023-01-29T23:59:52.169Z,-1.69
